aviador You're here:

SCAT Decoded Metar

DESIERTO ATACAMA in CHILE
Report Time2017-08-18 14:00:00
UTC Time2017-08-18 14:11:48
Flight Rules mvfr MVFR
Wind010° at 05 kt
W.Decomp.*RWY 35: 4.7 kt HW 1.8 kt RCW
W.Rank010° ranks 18
Current wind is below 010° avg. (6.6)
Visibility9999 m
Phenomena:N/A
Clouds:Overcast 011 Hf
Expected CloudBase > 1,600 ft AGL from Temp-Dew spread
Ceiling1,100 ft
Temp13°C (ISA -1)
Dew Point09°C (77% RH)
AAT11.0°C
QNH1019 hPa
Density Alt545 ft
Elevation669 ft
Report Wrong Elevation
Raw Report
METAR SCAT 181400Z 01005KT 320V050 9999 OVC011 13/09 Q1019=

Extra information for SCAT:More info

Metar Taf Metar & Taf Last 4 Metars F.Rules Stats Wind Profile Meteogram Temp Stats Airport Information Weather charts Add Link Nearby VenuesMetar ALERT Operation Metar Decoded Social comments